LIPY/AOI METAR and TAF weather

Enter ICAO airport designator
Station Type Date Time Source
LIPY METAR 2023/09/21 17:50 UTC NOAA

LIPY 211750Z AUTO 18003KT 9999 FEW076/// SCT093/// 24/18 Q1009


Station Type Date Time Source
LIPY Decoded METAR 2023/09/21 17:50 UTC NOAA

Falconara, Italy (LIPY) 43-37N 013-22E 10M
Sep 21, 2023 - 01:50 PM EDT / 2023.09.21 1750 UTC
Wind: from the S (180 degrees) at 3 MPH (3 KT):0
Visibility: greater than 7 mile(s):0
Sky conditions: partly cloudy
Temperature: 75 F (24 C)
Dew Point: 64 F (18 C)
Relative Humidity: 69%
Pressure (altimeter): 29.80 in. Hg (1009 hPa)
ob: LIPY 211750Z AUTO 18003KT 9999 FEW076/// SCT093/// 24/18 Q1009
cycle: 18

Station Type Date Time Source
LIPY TAF 2023/09/21 18:23 UTC NOAA

TAF LIPY 211700Z 2118/2218 20007KT 9999 SCT050

Example: see airport list